Portada
METAR-TAF:

METAR-TAF

Aeropuertos :

Concepción, Bolivia

latitud: 16-09S, longitud: 062-01W, altitud: 497 m

Observación

El informe se hizo hace 1 hora y 9 minutos, a las 19:00 UTC
Viento 4 kt del norte
Temperatura 34°C
Humedad 53%
Presión 1011 hPa
Visibilidad 10 km o más
Nubes dispersas a una altura de 1700 ft

METAR: SLCP 271900Z 36004KT 9999 SCT017 34/23 Q1011

Hora: 16:09 (20:09 UTC)


TAF: falta

Observaciones y pronósticos meteorológicos de más de 4000 aeropuertos (mensajes METAR y TAF).

Los puntos amarillos y rojos representan las estaciones disponibles.

Ponga el ratón en el punto deseado para ver el nombre de la estación.

Haga clic para ver las observaciones y los pronósticos meteorológicos.

Para cambiar el mapa : haga clic en los botones verdes con una cruz de color negro para hacer un zoom, en el botón verde con un guión para alejar o en las flechas verdes para mapas adyacentes.


METAR-TAF: